Time;durP1;ratioP1;P1;durP2;ratioP2;P2;SDS_P1;SDS_P2;PMS_P1;PMS_P2;Temp;Humidity;BMP_temperature;BMP_pressure;BME280_temperature;BME280_humidity;BME280_pressure;Samples;Min_cycle;Max_cycle;Signal;HPM_P1;HPM_P2
2021/07/29 00:00:37;;;;;;;2.60;1.35;;;23.00;61.50;;;;;;4860777;29;20411;-58
2021/07/29 00:03:04;;;;;;;4.28;1.65;;;23.00;61.60;;;;;;4860537;29;20140;-58
2021/07/29 00:05:31;;;;;;;3.78;1.50;;;23.00;61.60;;;;;;4860636;29;20033;-59
2021/07/29 00:07:57;;;;;;;3.50;1.75;;;23.00;61.60;;;;;;4860881;29;20034;-58
2021/07/29 00:10:23;;;;;;;2.05;1.25;;;23.00;61.60;;;;;;4860746;29;20466;-59
2021/07/29 00:12:49;;;;;;;4.00;1.60;;;23.00;61.60;;;;;;4860623;29;20082;-58
2021/07/29 00:15:16;;;;;;;3.03;1.38;;;23.00;61.60;;;;;;4860567;29;20026;-59
2021/07/29 00:20:17;;;;;;;2.92;1.58;;;22.90;61.60;;;;;;4860564;29;20026;-59
2021/07/29 00:22:44;;;;;;;2.95;1.20;;;22.90;61.70;;;;;;4860652;29;20077;-59
2021/07/29 00:25:13;;;;;;;2.63;1.45;;;22.90;61.70;;;;;;4860530;29;20033;-59
2021/07/29 00:27:40;;;;;;;4.00;1.60;;;22.90;61.70;;;;;;4860546;29;20089;-59
2021/07/29 00:30:06;;;;;;;2.75;1.42;;;22.90;61.70;;;;;;4864213;29;20096;-59
2021/07/29 00:32:32;;;;;;;3.03;1.67;;;22.90;61.70;;;;;;4863989;29;20030;-59
2021/07/29 00:34:58;;;;;;;3.60;1.60;;;22.90;61.70;;;;;;4861275;29;20026;-59
2021/07/29 00:37:23;;;;;;;2.33;1.20;;;22.90;61.80;;;;;;4861081;29;20042;-59
2021/07/29 00:39:49;;;;;;;2.67;1.52;;;22.80;61.80;;;;;;4868933;29;20486;-59
2021/07/29 00:42:15;;;;;;;3.17;1.63;;;22.80;61.90;;;;;;4865351;29;20094;-59
2021/07/29 00:44:41;;;;;;;3.08;1.60;;;22.80;61.90;;;;;;4860660;29;20036;-58
2021/07/29 00:47:07;;;;;;;3.78;1.63;;;22.80;61.90;;;;;;4860664;29;20390;-59
2021/07/29 00:49:36;;;;;;;2.88;1.50;;;22.80;61.80;;;;;;4862248;29;20474;-58
2021/07/29 00:52:02;;;;;;;3.80;1.73;;;22.80;61.80;;;;;;4861015;29;20488;-58
2021/07/29 00:54:28;;;;;;;3.10;1.50;;;22.80;61.90;;;;;;4867701;29;20040;-59
2021/07/29 00:56:55;;;;;;;3.15;1.65;;;22.70;62.00;;;;;;4858990;29;20536;-58
2021/07/29 00:59:21;;;;;;;3.00;1.40;;;22.70;62.00;;;;;;4860306;29;20410;-58
2021/07/29 01:01:46;;;;;;;3.45;1.52;;;22.70;62.00;;;;;;4860176;29;20037;-58
2021/07/29 01:04:12;;;;;;;2.67;1.35;;;22.70;62.00;;;;;;4859976;29;20057;-58
2021/07/29 01:06:38;;;;;;;2.95;1.52;;;22.70;62.00;;;;;;4860147;29;20032;-58
2021/07/29 01:09:09;;;;;;;3.03;1.30;;;22.70;62.00;;;;;;4860242;29;20025;-59
2021/07/29 01:11:35;;;;;;;3.35;1.50;;;22.70;62.00;;;;;;4860325;29;20066;-59
2021/07/29 01:14:01;;;;;;;3.53;1.67;;;22.70;61.90;;;;;;4860132;29;20022;-59
2021/07/29 01:16:26;;;;;;;3.90;1.65;;;22.70;61.90;;;;;;4859932;29;20035;-59
2021/07/29 01:18:53;;;;;;;2.60;1.55;;;22.70;62.00;;;;;;4860170;29;20070;-59
2021/07/29 01:21:18;;;;;;;2.28;1.27;;;22.70;62.00;;;;;;4860021;29;20021;-58
2021/07/29 01:23:44;;;;;;;2.83;1.40;;;22.70;62.00;;;;;;4860806;29;20455;-59
2021/07/29 01:26:10;;;;;;;3.05;1.40;;;22.70;62.00;;;;;;4863259;29;20093;-58
2021/07/29 01:28:36;;;;;;;3.42;1.30;;;22.60;62.00;;;;;;4863355;29;20391;-59
2021/07/29 01:31:01;;;;;;;3.33;1.70;;;22.60;62.00;;;;;;4863320;29;20263;-59
2021/07/29 01:33:26;;;;;;;2.97;1.60;;;22.60;62.10;;;;;;4863200;29;20032;-59
2021/07/29 01:35:52;;;;;;;4.15;1.88;;;22.60;62.10;;;;;;4863233;29;20075;-58
2021/07/29 01:38:17;;;;;;;4.00;1.40;;;22.60;62.10;;;;;;4863048;29;20569;-58
2021/07/29 01:40:43;;;;;;;2.80;1.40;;;22.60;62.10;;;;;;4863041;29;20037;-59
2021/07/29 01:43:08;;;;;;;3.58;1.60;;;22.60;62.10;;;;;;4862932;29;20018;-58
2021/07/29 01:45:34;;;;;;;2.92;1.60;;;22.60;62.10;;;;;;4862998;29;20029;-58
2021/07/29 01:47:59;;;;;;;3.42;1.60;;;22.60;62.10;;;;;;4862996;29;20089;-58
2021/07/29 01:50:25;;;;;;;2.10;1.40;;;22.60;62.10;;;;;;4862881;29;20064;-59
2021/07/29 01:52:50;;;;;;;1.88;1.10;;;22.60;62.10;;;;;;4863255;29;20027;-59
2021/07/29 01:55:16;;;;;;;4.07;1.50;;;22.60;62.10;;;;;;4862818;29;20030;-59
2021/07/29 01:57:41;;;;;;;3.28;1.30;;;22.60;62.10;;;;;;4862738;29;20042;-59
2021/07/29 02:00:07;;;;;;;2.60;1.52;;;22.60;62.10;;;;;;4862773;29;20030;-59
2021/07/29 02:02:33;;;;;;;3.28;1.60;;;22.50;62.10;;;;;;4862557;29;20405;-58
2021/07/29 02:04:58;;;;;;;3.35;1.65;;;22.50;62.10;;;;;;4862982;29;20030;-59
2021/07/29 02:07:24;;;;;;;2.70;1.38;;;22.50;62.20;;;;;;4862634;29;20037;-59
2021/07/29 02:09:49;;;;;;;3.55;1.63;;;22.50;62.20;;;;;;4862617;29;20470;-58
2021/07/29 02:12:15;;;;;;;3.05;1.73;;;22.50;62.10;;;;;;4862539;29;20506;-58
2021/07/29 02:14:40;;;;;;;2.70;1.40;;;22.50;62.10;;;;;;4862657;29;20036;-58
2021/07/29 02:17:06;;;;;;;2.97;1.50;;;22.50;62.10;;;;;;4862386;29;20038;-58
2021/07/29 02:19:32;;;;;;;3.60;1.55;;;22.50;62.20;;;;;;4862411;29;20419;-60
2021/07/29 02:21:58;;;;;;;2.80;1.42;;;22.50;62.20;;;;;;4862338;29;20048;-58
2021/07/29 02:24:24;;;;;;;4.25;1.70;;;22.50;62.30;;;;;;4862269;29;20513;-58
2021/07/29 02:26:49;;;;;;;3.65;1.63;;;22.50;62.30;;;;;;4862263;29;20036;-58
2021/07/29 02:29:15;;;;;;;3.28;1.50;;;22.50;62.30;;;;;;4862304;29;20038;-59
2021/07/29 02:31:40;;;;;;;2.65;1.30;;;22.50;62.30;;;;;;4862240;29;20440;-59
2021/07/29 02:34:06;;;;;;;4.60;1.80;;;22.50;62.30;;;;;;4862189;29;20114;-58
2021/07/29 02:36:32;;;;;;;2.60;1.50;;;22.40;62.30;;;;;;4861131;29;20026;-58
2021/07/29 02:38:57;;;;;;;2.63;1.60;;;22.40;62.30;;;;;;4862095;29;20117;-58
2021/07/29 02:41:23;;;;;;;3.53;1.85;;;22.40;62.30;;;;;;4862074;29;20029;-59
2021/07/29 02:43:48;;;;;;;3.85;1.60;;;22.40;62.30;;;;;;4862010;29;20093;-58
2021/07/29 02:46:14;;;;;;;3.47;1.60;;;22.40;62.40;;;;;;4861986;29;20481;-58
2021/07/29 02:48:40;;;;;;;4.50;2.13;;;22.40;62.40;;;;;;4861945;29;20037;-59
2021/07/29 02:51:05;;;;;;;3.42;1.67;;;22.40;62.40;;;;;;4862014;29;20114;-59
2021/07/29 02:53:34;;;;;;;3.78;1.95;;;22.40;62.40;;;;;;4861904;29;20033;-59
2021/07/29 02:56:00;;;;;;;3.33;1.75;;;22.40;62.40;;;;;;4862168;29;20427;-59
2021/07/29 02:58:26;;;;;;;3.72;1.67;;;22.40;62.40;;;;;;4862374;29;20037;-59
2021/07/29 03:00:55;;;;;;;3.92;1.80;;;22.40;62.50;;;;;;4861696;29;20053;-58
2021/07/29 03:03:21;;;;;;;2.72;1.40;;;22.40;62.50;;;;;;4861488;29;20058;-58
2021/07/29 03:05:46;;;;;;;4.38;2.30;;;22.40;62.50;;;;;;4861904;29;20026;-58
2021/07/29 03:08:12;;;;;;;5.45;2.67;;;22.30;62.60;;;;;;4861511;29;20033;-59
2021/07/29 03:10:37;;;;;;;4.75;2.10;;;22.30;62.60;;;;;;4861489;29;20037;-59
2021/07/29 03:13:04;;;;;;;3.83;2.10;;;22.30;62.50;;;;;;4861676;29;20061;-58
2021/07/29 03:15:30;;;;;;;5.38;1.98;;;22.30;62.60;;;;;;4864848;29;20497;-58
2021/07/29 03:17:57;;;;;;;4.75;2.35;;;22.30;62.60;;;;;;4861347;29;20129;-58
2021/07/29 03:20:22;;;;;;;4.47;2.17;;;22.30;62.60;;;;;;4861407;29;20057;-58
2021/07/29 03:22:48;;;;;;;4.43;2.35;;;22.20;62.60;;;;;;4861203;29;20060;-59
2021/07/29 03:25:14;;;;;;;4.82;2.28;;;22.30;62.70;;;;;;4861228;29;20025;-59
2021/07/29 03:27:39;;;;;;;4.78;2.38;;;22.30;62.60;;;;;;4861262;29;20085;-58
2021/07/29 03:30:05;;;;;;;4.10;2.13;;;22.30;62.60;;;;;;4861494;29;20382;-59
2021/07/29 03:32:31;;;;;;;5.00;2.40;;;22.20;62.60;;;;;;4865587;29;20033;-59
2021/07/29 03:34:56;;;;;;;4.90;2.05;;;22.20;62.70;;;;;;4871890;29;20028;-58
2021/07/29 03:37:22;;;;;;;4.80;2.10;;;22.30;62.70;;;;;;4863029;29;20041;-58
2021/07/29 03:39:47;;;;;;;3.80;2.22;;;22.20;62.70;;;;;;4861075;29;20153;-59
2021/07/29 03:42:13;;;;;;;4.40;2.17;;;22.30;62.60;;;;;;4861113;29;20065;-59
2021/07/29 03:44:38;;;;;;;4.53;2.47;;;22.20;62.70;;;;;;4860940;29;20030;-58
2021/07/29 03:47:04;;;;;;;4.30;2.33;;;22.20;62.70;;;;;;4859448;29;20044;-58
2021/07/29 03:49:32;;;;;;;4.85;2.58;;;22.20;62.70;;;;;;4861044;29;20053;-58
2021/07/29 03:51:59;;;;;;;5.20;2.55;;;22.20;62.70;;;;;;4860827;29;20041;-58
2021/07/29 03:54:25;;;;;;;4.65;2.40;;;22.20;62.70;;;;;;4860870;29;20028;-59
2021/07/29 03:56:50;;;;;;;5.10;2.38;;;22.20;62.70;;;;;;4859508;29;20034;-58
2021/07/29 03:59:16;;;;;;;4.95;2.20;;;22.20;62.70;;;;;;4860751;29;20034;-59
2021/07/29 04:01:41;;;;;;;5.18;2.55;;;22.20;62.70;;;;;;4860777;29;20101;-59
2021/07/29 04:04:07;;;;;;;5.63;2.50;;;22.20;62.70;;;;;;4859377;29;20056;-59
2021/07/29 04:06:32;;;;;;;4.18;2.17;;;22.20;62.70;;;;;;4860908;29;20032;-58
2021/07/29 04:08:58;;;;;;;5.22;2.60;;;22.10;62.70;;;;;;4860722;29;20041;-59
2021/07/29 04:11:23;;;;;;;5.32;2.22;;;22.20;62.70;;;;;;4860637;29;20035;-59
2021/07/29 04:13:49;;;;;;;5.55;2.55;;;22.20;62.70;;;;;;4860620;29;20093;-59
2021/07/29 04:16:14;;;;;;;5.47;2.60;;;22.20;62.70;;;;;;4860524;29;20500;-59
2021/07/29 04:18:40;;;;;;;5.15;2.63;;;22.10;62.70;;;;;;4860707;29;20042;-59
2021/07/29 04:21:06;;;;;;;5.60;2.50;;;22.10;62.70;;;;;;4860588;29;20506;-59
2021/07/29 04:23:31;;;;;;;5.75;2.72;;;22.10;62.70;;;;;;4860759;29;20394;-59
2021/07/29 04:25:57;;;;;;;6.93;2.80;;;22.20;62.60;;;;;;4860559;29;20177;-59
2021/07/29 04:28:22;;;;;;;9.73;2.85;;;22.10;62.60;;;;;;4861193;29;20406;-58
2021/07/29 04:30:47;;;;;;;5.22;2.47;;;22.10;62.60;;;;;;4862053;29;20038;-58
2021/07/29 04:33:13;;;;;;;4.30;2.30;;;22.20;62.60;;;;;;4861686;29;20037;-58
2021/07/29 04:35:39;;;;;;;5.95;2.55;;;22.10;62.60;;;;;;4860967;29;20030;-58
2021/07/29 04:38:05;;;;;;;4.85;2.30;;;22.10;62.50;;;;;;4862151;29;20037;-58
2021/07/29 04:40:30;;;;;;;5.20;2.55;;;22.10;62.60;;;;;;4859462;29;20036;-59
2021/07/29 04:42:56;;;;;;;5.03;2.63;;;22.10;62.60;;;;;;4860732;29;20094;-58
2021/07/29 04:45:22;;;;;;;5.60;2.65;;;22.10;62.60;;;;;;4860805;29;20447;-58
2021/07/29 04:47:47;;;;;;;4.75;2.58;;;22.20;62.40;;;;;;4861356;29;20037;-59
2021/07/29 04:50:13;;;;;;;4.82;2.58;;;22.10;62.60;;;;;;4861024;29;20112;-59
2021/07/29 04:52:38;;;;;;;4.18;2.42;;;22.10;62.60;;;;;;4860564;29;20060;-58
2021/07/29 04:55:04;;;;;;;4.93;2.38;;;22.10;62.60;;;;;;4860508;29;20093;-58
2021/07/29 04:57:32;;;;;;;4.95;2.60;;;22.10;62.50;;;;;;4860426;29;20044;-59
2021/07/29 04:59:57;;;;;;;5.45;2.58;;;22.10;62.50;;;;;;4863512;29;20089;-58
2021/07/29 05:02:22;;;;;;;6.35;3.17;;;22.10;62.50;;;;;;4863940;29;20025;-59
2021/07/29 05:04:48;;;;;;;4.82;2.60;;;22.10;62.50;;;;;;4864068;29;20042;-58
2021/07/29 05:07:13;;;;;;;4.07;2.33;;;22.10;62.40;;;;;;4865299;29;20036;-59
2021/07/29 05:09:39;;;;;;;5.00;2.60;;;22.10;62.40;;;;;;4864121;29;20530;-58
2021/07/29 05:12:05;;;;;;;5.35;2.70;;;22.10;62.40;;;;;;4863668;29;20022;-59
2021/07/29 05:14:31;;;;;;;5.22;2.85;;;22.20;62.40;;;;;;4863799;29;20052;-59
2021/07/29 05:17:01;;;;;;;5.00;2.53;;;22.10;62.40;;;;;;4863517;29;20490;-58
2021/07/29 05:19:26;;;;;;;4.00;2.47;;;22.10;62.40;;;;;;4863517;29;20037;-59
2021/07/29 05:21:52;;;;;;;5.15;2.45;;;22.10;62.40;;;;;;4863664;29;20033;-59
2021/07/29 05:24:17;;;;;;;5.10;2.70;;;22.10;62.40;;;;;;4864374;29;20049;-59
2021/07/29 05:26:43;;;;;;;5.32;2.35;;;22.10;62.40;;;;;;4868734;29;20044;-58
2021/07/29 05:29:09;;;;;;;4.78;2.50;;;22.20;62.30;;;;;;4863353;29;20025;-58
2021/07/29 05:31:37;;;;;;;3.75;2.20;;;22.10;62.30;;;;;;4863490;29;20439;-59
2021/07/29 05:34:02;;;;;;;6.18;2.70;;;22.10;62.20;;;;;;4863281;29;20363;-59
2021/07/29 05:36:28;;;;;;;6.72;2.97;;;22.20;62.20;;;;;;4863131;29;20026;-59
2021/07/29 05:38:53;;;;;;;9.60;2.65;;;22.20;62.10;;;;;;4863233;29;20046;-59
2021/07/29 05:41:19;;;;;;;4.88;2.28;;;22.10;62.00;;;;;;4863026;29;20033;-58
2021/07/29 05:43:44;;;;;;;5.28;2.33;;;22.10;62.10;;;;;;4863275;29;20033;-58
2021/07/29 05:46:11;;;;;;;5.13;2.40;;;22.10;62.20;;;;;;4863328;29;20029;-58
2021/07/29 05:48:38;;;;;;;6.10;2.65;;;22.10;62.10;;;;;;4863201;29;20105;-59
2021/07/29 05:51:04;;;;;;;4.90;2.45;;;22.10;62.10;;;;;;4863682;29;20061;-59
2021/07/29 05:53:30;;;;;;;5.22;2.45;;;22.10;62.10;;;;;;4863021;29;20025;-58
2021/07/29 05:55:56;;;;;;;5.40;2.55;;;22.10;62.00;;;;;;4863458;29;20037;-58
2021/07/29 05:58:22;;;;;;;7.25;2.97;;;22.20;62.00;;;;;;4866436;29;20105;-58
2021/07/29 06:00:48;;;;;;;5.28;2.42;;;22.20;62.00;;;;;;4865179;29;20021;-58
2021/07/29 06:03:13;;;;;;;4.95;2.33;;;22.10;61.90;;;;;;4862624;29;20060;-58
2021/07/29 06:05:39;;;;;;;5.57;2.78;;;22.20;61.80;;;;;;4862821;29;20378;-59
2021/07/29 06:08:05;;;;;;;5.65;2.38;;;22.10;61.90;;;;;;4862777;29;20462;-59
2021/07/29 06:10:30;;;;;;;5.55;2.63;;;22.10;61.90;;;;;;4862542;29;20093;-58
2021/07/29 06:12:56;;;;;;;5.97;2.40;;;22.20;61.70;;;;;;4862709;29;20418;-58
2021/07/29 06:15:22;;;;;;;4.47;2.28;;;22.20;61.70;;;;;;4862621;29;20041;-58
2021/07/29 06:17:54;;;;;;;6.97;2.20;;;22.20;61.80;;;;;;4862498;29;20448;-59
2021/07/29 06:20:20;;;;;;;4.63;2.17;;;22.10;61.70;;;;;;4864839;29;20041;-58
2021/07/29 06:22:45;;;;;;;5.30;2.22;;;22.20;61.60;;;;;;4866290;29;20041;-58
2021/07/29 06:25:12;;;;;;;4.53;2.35;;;22.20;61.60;;;;;;4865777;29;20026;-58
2021/07/29 06:27:38;;;;;;;5.43;2.67;;;22.20;61.50;;;;;;4873600;29;20037;-58
2021/07/29 06:30:07;;;;;;;4.30;2.40;;;22.20;61.50;;;;;;4871613;29;20040;-59
2021/07/29 06:32:33;;;;;;;5.60;2.63;;;22.20;61.60;;;;;;4863281;29;20077;-58
2021/07/29 06:34:58;;;;;;;5.07;2.67;;;22.20;61.50;;;;;;4862336;29;20030;-59
2021/07/29 06:37:24;;;;;;;7.18;2.42;;;22.20;61.40;;;;;;4862161;29;20042;-58
2021/07/29 06:39:49;;;;;;;4.82;2.65;;;22.30;61.30;;;;;;4862271;29;20033;-58
2021/07/29 06:42:15;;;;;;;4.68;2.22;;;22.30;61.20;;;;;;4862006;29;20478;-58
2021/07/29 06:44:44;;;;;;;4.80;2.38;;;22.30;61.10;;;;;;4862077;29;20030;-59
2021/07/29 06:47:13;;;;;;;4.72;2.60;;;22.30;61.00;;;;;;4862037;29;20037;-58
2021/07/29 06:49:39;;;;;;;4.57;2.10;;;22.30;61.00;;;;;;4861931;29;20049;-58
2021/07/29 06:52:05;;;;;;;4.60;2.50;;;22.30;61.00;;;;;;4860672;29;20056;-58
2021/07/29 06:54:30;;;;;;;5.00;2.65;;;22.40;60.90;;;;;;4861938;29;20170;-59
2021/07/29 06:56:56;;;;;;;4.63;2.13;;;22.30;60.90;;;;;;4862670;29;20476;-58
2021/07/29 06:59:21;;;;;;;6.97;2.90;;;22.30;61.00;;;;;;4864166;29;20166;-58
2021/07/29 07:01:47;;;;;;;4.60;2.10;;;22.30;61.00;;;;;;4861815;29;20033;-58
2021/07/29 07:04:12;;;;;;;4.15;2.00;;;22.40;60.90;;;;;;4861371;29;20061;-57
2021/07/29 07:06:38;;;;;;;5.35;2.20;;;22.40;60.90;;;;;;4861789;29;20036;-60
2021/07/29 07:09:03;;;;;;;4.07;2.28;;;22.30;60.90;;;;;;4875213;29;20041;-58
2021/07/29 07:11:29;;;;;;;7.00;2.40;;;22.30;61.00;;;;;;4879149;29;20029;-61
2021/07/29 07:13:55;;;;;;;4.68;2.08;;;22.40;60.80;;;;;;4879616;29;20366;-62
2021/07/29 07:16:21;;;;;;;5.30;2.50;;;22.30;60.80;;;;;;4878984;29;20355;-60
2021/07/29 07:18:46;;;;;;;4.85;2.40;;;22.30;60.80;;;;;;4878103;29;20045;-59
2021/07/29 07:21:12;;;;;;;6.30;2.53;;;22.40;60.70;;;;;;4878257;29;20029;-60
2021/07/29 07:23:38;;;;;;;4.75;2.50;;;22.40;60.70;;;;;;4878886;29;20032;-60
2021/07/29 07:26:05;;;;;;;5.00;2.30;;;22.40;60.70;;;;;;4879009;29;20033;-60
2021/07/29 07:28:31;;;;;;;4.82;2.10;;;22.40;60.60;;;;;;4877953;29;20076;-60
2021/07/29 07:30:57;;;;;;;5.65;2.20;;;22.40;60.60;;;;;;4877361;29;20036;-60
2021/07/29 07:33:22;;;;;;;4.15;1.98;;;22.40;60.70;;;;;;4878842;29;20105;-62
2021/07/29 07:35:49;;;;;;;6.88;2.35;;;22.50;60.60;;;;;;4878635;29;20429;-61
2021/07/29 07:38:15;;;;;;;3.75;1.85;;;22.40;60.60;;;;;;4877973;29;20181;-61
2021/07/29 07:40:40;;;;;;;4.15;1.67;;;22.40;60.60;;;;;;4878822;29;20104;-60
2021/07/29 07:43:06;;;;;;;8.25;2.30;;;22.40;60.70;;;;;;4878813;29;20121;-59
2021/07/29 07:45:32;;;;;;;5.93;2.38;;;22.50;60.40;;;;;;4878974;29;20025;-60
2021/07/29 07:47:57;;;;;;;4.57;2.30;;;22.50;60.60;;;;;;4878495;29;20036;-59
2021/07/29 07:50:23;;;;;;;4.95;2.15;;;22.50;60.60;;;;;;4878225;29;20032;-60
2021/07/29 07:52:48;;;;;;;5.95;3.15;;;22.50;60.60;;;;;;4878776;29;20037;-60
2021/07/29 07:55:14;;;;;;;4.50;2.25;;;22.50;60.60;;;;;;4877326;29;20033;-60
2021/07/29 07:57:39;;;;;;;4.63;2.20;;;22.50;60.60;;;;;;4878201;29;20044;-61
2021/07/29 08:00:05;;;;;;;5.35;2.28;;;22.50;60.60;;;;;;4878244;29;20033;-61
2021/07/29 08:02:31;;;;;;;3.78;1.38;;;22.50;60.50;;;;;;4878172;29;20094;-59
2021/07/29 08:04:56;;;;;;;3.92;2.05;;;22.50;60.40;;;;;;4878555;29;20029;-62
2021/07/29 08:07:22;;;;;;;6.45;2.40;;;22.50;60.40;;;;;;4879018;29;20423;-60
2021/07/29 08:09:48;;;;;;;4.85;2.30;;;22.50;60.40;;;;;;4878682;29;20037;-60
2021/07/29 08:12:14;;;;;;;8.02;2.20;;;22.40;60.50;;;;;;4878573;29;20150;-61
2021/07/29 08:14:39;;;;;;;7.30;2.05;;;22.50;60.40;;;;;;4877756;29;20469;-60
2021/07/29 08:17:05;;;;;;;4.97;2.30;;;22.50;60.30;;;;;;4878952;29;20077;-60
2021/07/29 08:19:32;;;;;;;4.90;2.42;;;22.50;60.40;;;;;;4879155;29;20037;-60
2021/07/29 08:21:58;;;;;;;6.45;2.15;;;22.50;60.30;;;;;;4878938;29;20517;-60
2021/07/29 08:24:24;;;;;;;6.65;2.28;;;22.50;60.40;;;;;;4878915;29;20072;-61
2021/07/29 08:26:49;;;;;;;4.15;2.20;;;22.50;60.30;;;;;;4878963;29;20037;-61
2021/07/29 08:29:15;;;;;;;5.68;1.95;;;22.60;60.10;;;;;;4878951;29;20481;-60
2021/07/29 08:31:41;;;;;;;7.40;2.25;;;22.50;60.40;;;;;;4879040;29;20029;-61
2021/07/29 08:34:06;;;;;;;5.63;2.30;;;22.50;60.40;;;;;;4880362;29;20550;-60
2021/07/29 08:36:32;;;;;;;5.40;2.40;;;22.50;60.30;;;;;;4882652;29;20043;-60
2021/07/29 08:38:57;;;;;;;4.13;2.20;;;22.60;60.20;;;;;;4882613;29;20041;-60
2021/07/29 08:41:23;;;;;;;4.20;2.03;;;22.50;60.30;;;;;;4882519;29;20048;-60
2021/07/29 08:43:49;;;;;;;7.70;2.20;;;22.60;60.30;;;;;;4882591;29;20036;-60
2021/07/29 08:46:19;;;;;;;5.35;2.33;;;22.60;60.20;;;;;;4882545;29;20445;-60
2021/07/29 08:48:46;;;;;;;6.05;1.80;;;22.60;60.30;;;;;;4882489;29;20033;-60
2021/07/29 08:51:22;;;;;;;4.70;2.15;;;22.60;60.30;;;;;;4881204;29;20089;-60
2021/07/29 08:53:48;;;;;;;7.28;2.20;;;22.60;60.20;;;;;;4882390;29;20033;-61
2021/07/29 08:56:14;;;;;;;5.60;2.20;;;22.60;60.20;;;;;;4882343;29;20064;-61
2021/07/29 08:58:41;;;;;;;5.03;2.13;;;22.60;60.10;;;;;;4882235;29;20064;-61
2021/07/29 09:01:09;;;;;;;5.13;2.15;;;22.60;60.30;;;;;;4882167;29;20033;-61
2021/07/29 09:03:39;;;;;;;7.15;2.10;;;22.60;60.20;;;;;;4882062;29;20088;-61
2021/07/29 09:06:08;;;;;;;4.90;2.25;;;22.60;60.10;;;;;;4882225;29;20025;-60
2021/07/29 09:08:53;;;;;;;6.15;2.17;;;22.60;60.10;;;;;;4882164;29;20028;-61
2021/07/29 09:11:35;;;;;;;;;;;22.60;60.00;;;;;;4882523;29;20033;-61
2021/07/29 09:14:21;;;;;;;4.93;2.20;;;22.60;60.00;;;;;;4882002;29;19985;-61
2021/07/29 09:17:08;;;;;;;5.25;2.40;;;22.60;60.10;;;;;;4881938;29;20068;-61
2021/07/29 09:19:34;;;;;;;5.80;2.20;;;22.60;60.00;;;;;;4881962;29;20427;-61
2021/07/29 09:22:14;;;;;;;5.80;2.08;;;22.70;60.00;;;;;;4881993;29;20025;-61
2021/07/29 09:25:08;;;;;;;4.80;1.98;;;22.70;60.00;;;;;;4881932;29;20085;-61
2021/07/29 09:27:42;;;;;;;5.60;2.38;;;22.70;60.00;;;;;;4881981;29;20377;-61
2021/07/29 09:30:13;;;;;;;4.90;2.03;;;22.60;60.00;;;;;;4881892;29;20029;-61
2021/07/29 09:32:59;;;;;;;4.60;2.20;;;22.60;60.00;;;;;;4881772;29;20048;-60
2021/07/29 09:35:42;;;;;;;4.22;1.75;;;22.70;60.00;;;;;;4881802;29;20033;-61
2021/07/29 09:38:23;;;;;;;5.05;2.03;;;22.70;59.90;;;;;;4881591;29;20037;-61
2021/07/29 09:40:59;;;;;;;4.88;1.73;;;22.70;59.80;;;;;;4881725;29;20119;-61
2021/07/29 09:43:28;;;;;;;4.10;1.80;;;22.70;59.80;;;;;;4881443;29;20084;-60
2021/07/29 09:45:56;;;;;;;5.05;1.90;;;22.70;59.80;;;;;;4879774;29;20409;-60
2021/07/29 09:48:22;;;;;;;5.63;2.25;;;22.70;59.80;;;;;;4880049;29;20021;-60
2021/07/29 09:50:50;;;;;;;4.72;1.88;;;22.70;59.80;;;;;;4887165;29;20028;-62
2021/07/29 09:53:15;;;;;;;5.22;1.90;;;22.70;59.70;;;;;;4887873;29;20081;-60
2021/07/29 09:55:41;;;;;;;3.95;1.65;;;22.70;59.80;;;;;;4887509;29;20427;-61
2021/07/29 09:58:07;;;;;;;5.32;2.20;;;22.70;59.70;;;;;;4885170;29;20120;-61
2021/07/29 10:00:35;;;;;;;5.43;2.03;;;22.70;59.70;;;;;;4880852;29;20025;-61
2021/07/29 10:03:07;;;;;;;4.78;2.08;;;22.70;59.70;;;;;;4880448;29;20076;-60
2021/07/29 10:05:36;;;;;;;4.18;1.80;;;22.70;59.80;;;;;;4880602;29;20060;-60
2021/07/29 10:08:04;;;;;;;3.17;1.50;;;22.70;59.70;;;;;;4880619;29;20033;-60
2021/07/29 10:10:30;;;;;;;5.93;1.65;;;22.80;59.80;;;;;;4880544;29;20084;-59
2021/07/29 10:12:56;;;;;;;3.75;1.70;;;22.80;59.70;;;;;;4880462;29;20475;-60
2021/07/29 10:15:43;;;;;;;4.65;2.20;;;22.80;59.60;;;;;;4880366;29;20544;-61
2021/07/29 10:18:10;;;;;;;7.07;2.35;;;22.80;59.50;;;;;;4880217;29;20048;-61
2021/07/29 10:20:37;;;;;;;4.78;2.05;;;22.80;59.50;;;;;;4880202;29;20029;-61
2021/07/29 10:23:15;;;;;;;2.95;1.80;;;22.80;59.50;;;;;;4881601;29;20054;-61
2021/07/29 10:25:53;;;;;;;2.53;1.48;;;22.80;59.50;;;;;;4881453;29;20390;-61
2021/07/29 10:28:23;;;;;;;5.40;1.85;;;22.90;59.40;;;;;;4880003;29;20021;-61
2021/07/29 10:30:56;;;;;;;6.00;1.77;;;22.80;59.40;;;;;;4879877;29;20446;-60
2021/07/29 10:33:28;;;;;;;4.28;1.98;;;22.80;59.50;;;;;;4880194;29;20027;-62
2021/07/29 10:35:54;;;;;;;3.45;1.58;;;22.80;59.60;;;;;;4879514;29;20033;-61
2021/07/29 10:38:38;;;;;;;3.10;1.30;;;22.80;59.50;;;;;;4878541;29;20037;-61
2021/07/29 10:41:05;;;;;;;4.95;1.67;;;22.80;59.40;;;;;;4880097;29;20029;-61
2021/07/29 10:43:31;;;;;;;5.40;1.95;;;22.90;59.30;;;;;;4880115;29;20029;-61
2021/07/29 10:45:57;;;;;;;3.70;1.63;;;22.90;59.30;;;;;;4879512;29;20058;-62
2021/07/29 10:48:45;;;;;;;6.80;1.98;;;22.90;59.30;;;;;;4879834;29;20037;-61
2021/07/29 10:51:18;;;;;;;4.68;1.70;;;22.90;59.20;;;;;;4879644;29;20025;-60
2021/07/29 10:53:45;;;;;;;5.75;1.80;;;22.90;59.10;;;;;;4879789;29;20517;-61
2021/07/29 10:56:16;;;;;;;4.13;1.73;;;22.90;59.10;;;;;;4878406;29;20033;-61
2021/07/29 10:58:43;;;;;;;3.78;1.80;;;23.00;59.00;;;;;;4879669;29;20045;-61
2021/07/29 11:01:10;;;;;;;2.85;1.55;;;23.00;59.00;;;;;;4879509;29;20618;-61
2021/07/29 11:03:45;;;;;;;4.70;1.70;;;23.00;58.90;;;;;;4879564;29;20052;-60
2021/07/29 11:06:13;;;;;;;5.07;1.98;;;23.00;58.90;;;;;;4879276;29;20029;-62
2021/07/29 11:08:41;;;;;;;4.60;2.13;;;23.00;58.80;;;;;;4879229;29;20065;-61
2021/07/29 11:11:07;;;;;;;4.80;1.23;;;23.00;58.80;;;;;;4879413;29;20021;-62
2021/07/29 11:13:35;;;;;;;3.60;1.83;;;23.00;58.90;;;;;;4879283;29;20062;-62
2021/07/29 11:16:01;;;;;;;4.68;1.65;;;23.00;58.80;;;;;;4879648;29;20028;-61
2021/07/29 11:18:27;;;;;;;5.20;1.48;;;23.10;58.80;;;;;;4878548;29;20100;-61
2021/07/29 11:20:53;;;;;;;5.65;2.05;;;23.10;58.70;;;;;;4879273;29;20481;-62
2021/07/29 11:23:37;;;;;;;3.53;1.60;;;23.10;58.70;;;;;;4879436;29;20044;-61
2021/07/29 11:26:04;;;;;;;4.93;1.75;;;23.20;58.70;;;;;;4879523;29;20033;-61
2021/07/29 11:28:31;;;;;;;6.93;1.88;;;23.20;58.70;;;;;;4878328;29;20649;-61
2021/07/29 11:30:57;;;;;;;3.65;1.40;;;23.20;58.60;;;;;;4878829;29;20081;-61
2021/07/29 11:33:25;;;;;;;7.03;2.00;;;23.20;58.60;;;;;;4878007;29;20033;-61
2021/07/29 11:35:51;;;;;;;4.20;1.63;;;23.20;58.60;;;;;;4879211;29;20029;-61
2021/07/29 11:38:18;;;;;;;2.88;1.25;;;23.20;58.60;;;;;;4878340;29;20037;-61
2021/07/29 11:40:44;;;;;;;5.20;1.67;;;23.20;58.60;;;;;;4878763;29;20029;-60
2021/07/29 11:43:23;;;;;;;7.15;1.80;;;23.20;58.60;;;;;;4879213;29;20052;-62
2021/07/29 11:45:49;;;;;;;4.60;1.90;;;23.30;58.50;;;;;;4878787;29;20025;-61
2021/07/29 11:48:22;;;;;;;3.00;1.48;;;23.30;58.50;;;;;;4878454;29;20096;-61
2021/07/29 11:50:49;;;;;;;3.57;1.50;;;23.30;58.60;;;;;;4878611;29;20084;-61
2021/07/29 11:53:15;;;;;;;4.15;1.30;;;23.20;58.40;;;;;;4877548;29;20139;-61
2021/07/29 11:55:53;;;;;;;2.47;1.25;;;23.30;58.30;;;;;;4878888;29;20092;-62
2021/07/29 11:58:18;;;;;;;5.00;1.80;;;23.40;58.30;;;;;;4878623;29;20033;-61
2021/07/29 12:00:48;;;;;;;4.70;1.73;;;23.30;58.40;;;;;;4877979;29;20088;-62
2021/07/29 12:03:35;;;;;;;2.70;1.20;;;23.30;58.40;;;;;;4878674;29;20045;-61
2021/07/29 12:06:02;;;;;;;4.63;1.50;;;23.30;58.40;;;;;;4878689;29;20028;-60
2021/07/29 12:08:28;;;;;;;5.15;1.80;;;23.30;58.40;;;;;;4877995;29;20470;-60
2021/07/29 12:10:56;;;;;;;2.80;1.50;;;23.30;58.40;;;;;;4877958;29;20157;-61
2021/07/29 12:13:23;;;;;;;2.53;1.10;;;23.30;58.40;;;;;;4878597;29;20041;-60
2021/07/29 12:15:53;;;;;;;5.28;1.50;;;23.40;58.40;;;;;;4878258;29;20025;-61
2021/07/29 12:18:20;;;;;;;4.55;1.55;;;23.40;58.30;;;;;;4877317;29;20037;-60
2021/07/29 12:20:51;;;;;;;6.22;1.67;;;23.40;58.30;;;;;;4879139;29;20021;-60
2021/07/29 12:23:17;;;;;;;6.07;1.67;;;23.40;58.40;;;;;;4879305;29;20040;-60
2021/07/29 12:25:44;;;;;;;4.10;1.52;;;23.40;58.10;;;;;;4878902;29;20032;-60
2021/07/29 12:28:10;;;;;;;3.35;1.50;;;23.50;58.10;;;;;;4878919;29;20033;-60
2021/07/29 12:30:38;;;;;;;4.80;1.65;;;23.50;58.10;;;;;;4878831;29;20029;-60
2021/07/29 12:33:12;;;;;;;5.38;2.15;;;23.50;58.00;;;;;;4877179;29;20034;-61
2021/07/29 12:35:40;;;;;;;7.18;1.40;;;23.50;57.90;;;;;;4880504;29;20366;-61
2021/07/29 12:38:06;;;;;;;2.70;1.20;;;23.50;58.00;;;;;;4878762;29;20088;-61
2021/07/29 12:40:33;;;;;;;2.05;1.05;;;23.50;58.00;;;;;;4878788;29;20109;-61
2021/07/29 12:43:19;;;;;;;4.28;1.60;;;23.50;58.00;;;;;;4879044;29;20036;-61
2021/07/29 12:45:53;;;;;;;4.80;1.40;;;23.50;57.90;;;;;;4879009;29;20031;-61
2021/07/29 12:48:22;;;;;;;3.30;1.50;;;23.50;58.00;;;;;;4878844;29;20033;-61
2021/07/29 12:50:48;;;;;;;5.15;1.52;;;23.50;57.90;;;;;;4878919;29;20037;-61